sensor_id;sensor_type;location;lat;lon;timestamp;temperature;humidity
1880;DHT22;49285;49.002;8.390;2023-03-26T00:01:07;11.60;99.90
1880;DHT22;49285;49.002;8.390;2023-03-26T00:03:34;11.60;99.90
1880;DHT22;49285;49.002;8.390;2023-03-26T00:06:01;11.70;99.90
1880;DHT22;49285;49.002;8.390;2023-03-26T00:08:27;11.70;99.90
1880;DHT22;49285;49.002;8.390;2023-03-26T00:10:53;11.70;99.90
1880;DHT22;49285;49.002;8.390;2023-03-26T00:13:18;11.70;99.90
1880;DHT22;49285;49.002;8.390;2023-03-26T00:15:44;11.70;99.90
1880;DHT22;49285;49.002;8.390;2023-03-26T00:18:09;11.70;99.90
1880;DHT22;49285;49.002;8.390;2023-03-26T00:20:35;11.70;99.90
1880;DHT22;49285;49.002;8.390;2023-03-26T00:23:02;11.70;99.90
1880;DHT22;49285;49.002;8.390;2023-03-26T00:25:28;11.80;99.90
1880;DHT22;49285;49.002;8.390;2023-03-26T00:27:54;11.70;99.90
1880;DHT22;49285;49.002;8.390;2023-03-26T00:30:19;11.60;99.90
1880;DHT22;49285;49.002;8.390;2023-03-26T00:32:45;11.60;99.90
1880;DHT22;49285;49.002;8.390;2023-03-26T00:35:11;11.60;99.90
1880;DHT22;49285;49.002;8.390;2023-03-26T00:37:38;11.70;99.90
1880;DHT22;49285;49.002;8.390;2023-03-26T00:40:07;11.70;99.90
1880;DHT22;49285;49.002;8.390;2023-03-26T00:42:36;11.70;99.90
1880;DHT22;49285;49.002;8.390;2023-03-26T00:45:03;11.70;99.90
1880;DHT22;49285;49.002;8.390;2023-03-26T00:47:29;11.70;99.90
1880;DHT22;49285;49.002;8.390;2023-03-26T00:49:55;11.60;99.90
1880;DHT22;49285;49.002;8.390;2023-03-26T00:52:22;11.70;99.90
1880;DHT22;49285;49.002;8.390;2023-03-26T00:54:50;11.70;99.90
1880;DHT22;49285;49.002;8.390;2023-03-26T00:57:17;11.70;99.90
1880;DHT22;49285;49.002;8.390;2023-03-26T00:59:45;11.80;99.90
1880;DHT22;49285;49.002;8.390;2023-03-26T01:02:13;11.70;99.90
1880;DHT22;49285;49.002;8.390;2023-03-26T01:04:50;11.70;99.90
1880;DHT22;49285;49.002;8.390;2023-03-26T01:07:21;11.70;99.90
1880;DHT22;49285;49.002;8.390;2023-03-26T01:09:55;11.80;99.90
1880;DHT22;49285;49.002;8.390;2023-03-26T01:12:23;11.80;99.90
1880;DHT22;49285;49.002;8.390;2023-03-26T01:14:53;11.70;99.90
1880;DHT22;49285;49.002;8.390;2023-03-26T01:17:20;11.90;99.90
1880;DHT22;49285;49.002;8.390;2023-03-26T01:19:52;11.90;99.90
1880;DHT22;49285;49.002;8.390;2023-03-26T01:22:25;11.80;99.90
1880;DHT22;49285;49.002;8.390;2023-03-26T01:24:52;11.80;99.90
1880;DHT22;49285;49.002;8.390;2023-03-26T01:30:09;11.90;99.90
1880;DHT22;49285;49.002;8.390;2023-03-26T01:38:05;11.90;99.90
1880;DHT22;49285;49.002;8.390;2023-03-26T01:43:42;11.90;99.90
1880;DHT22;49285;49.002;8.390;2023-03-26T01:46:10;11.90;99.90
1880;DHT22;49285;49.002;8.390;2023-03-26T01:48:39;11.90;99.90
1880;DHT22;49285;49.002;8.390;2023-03-26T01:51:07;11.80;99.90
1880;DHT22;49285;49.002;8.390;2023-03-26T01:53:42;11.80;99.90
1880;DHT22;49285;49.002;8.390;2023-03-26T02:01:56;11.80;99.90
1880;DHT22;49285;49.002;8.390;2023-03-26T02:07:16;11.90;99.90
1880;DHT22;49285;49.002;8.390;2023-03-26T02:09:52;11.90;99.90
1880;DHT22;49285;49.002;8.390;2023-03-26T02:12:20;11.90;99.90
1880;DHT22;49285;49.002;8.390;2023-03-26T02:14:46;11.70;99.90
1880;DHT22;49285;49.002;8.390;2023-03-26T02:17:12;11.70;99.90
1880;DHT22;49285;49.002;8.390;2023-03-26T02:19:37;11.70;99.90
1880;DHT22;49285;49.002;8.390;2023-03-26T02:22:10;11.80;99.90
1880;DHT22;49285;49.002;8.390;2023-03-26T02:24:40;11.80;99.90
1880;DHT22;49285;49.002;8.390;2023-03-26T02:27:06;11.80;99.90
1880;DHT22;49285;49.002;8.390;2023-03-26T02:29:37;11.70;99.90
1880;DHT22;49285;49.002;8.390;2023-03-26T02:32:05;11.80;99.90
1880;DHT22;49285;49.002;8.390;2023-03-26T02:34:31;11.80;99.90
1880;DHT22;49285;49.002;8.390;2023-03-26T02:36:57;11.80;99.90
1880;DHT22;49285;49.002;8.390;2023-03-26T02:39:23;11.70;99.90
1880;DHT22;49285;49.002;8.390;2023-03-26T02:41:49;11.70;99.90
1880;DHT22;49285;49.002;8.390;2023-03-26T02:44:14;11.70;99.90
1880;DHT22;49285;49.002;8.390;2023-03-26T02:46:40;11.70;99.90
1880;DHT22;49285;49.002;8.390;2023-03-26T02:49:06;11.70;99.90
1880;DHT22;49285;49.002;8.390;2023-03-26T02:51:32;11.60;99.90
1880;DHT22;49285;49.002;8.390;2023-03-26T02:53:59;11.60;99.90
1880;DHT22;49285;49.002;8.390;2023-03-26T02:56:26;11.70;99.90
1880;DHT22;49285;49.002;8.390;2023-03-26T02:58:51;11.70;99.90
1880;DHT22;49285;49.002;8.390;2023-03-26T03:01:17;11.60;99.90
1880;DHT22;49285;49.002;8.390;2023-03-26T03:03:43;11.50;99.90
1880;DHT22;49285;49.002;8.390;2023-03-26T03:06:08;11.50;99.90
1880;DHT22;49285;49.002;8.390;2023-03-26T03:08:34;11.50;99.90
1880;DHT22;49285;49.002;8.390;2023-03-26T03:11:13;11.50;99.90
1880;DHT22;49285;49.002;8.390;2023-03-26T03:13:39;11.60;99.90
1880;DHT22;49285;49.002;8.390;2023-03-26T03:16:04;11.70;99.90
1880;DHT22;49285;49.002;8.390;2023-03-26T03:18:31;11.70;99.90
1880;DHT22;49285;49.002;8.390;2023-03-26T03:20:56;11.70;99.90
1880;DHT22;49285;49.002;8.390;2023-03-26T03:23:22;11.60;99.90
1880;DHT22;49285;49.002;8.390;2023-03-26T03:25:47;11.60;99.90
1880;DHT22;49285;49.002;8.390;2023-03-26T03:28:15;11.60;99.90
1880;DHT22;49285;49.002;8.390;2023-03-26T03:30:42;11.60;99.90
1880;DHT22;49285;49.002;8.390;2023-03-26T03:33:09;11.70;99.90
1880;DHT22;49285;49.002;8.390;2023-03-26T03:35:35;11.70;99.90
1880;DHT22;49285;49.002;8.390;2023-03-26T03:38:02;11.70;99.90
1880;DHT22;49285;49.002;8.390;2023-03-26T03:40:27;11.70;99.90
1880;DHT22;49285;49.002;8.390;2023-03-26T03:42:53;11.70;99.90
1880;DHT22;49285;49.002;8.390;2023-03-26T03:45:18;11.70;99.90
1880;DHT22;49285;49.002;8.390;2023-03-26T03:47:44;11.70;99.90
1880;DHT22;49285;49.002;8.390;2023-03-26T03:50:10;11.80;99.90
1880;DHT22;49285;49.002;8.390;2023-03-26T03:52:36;11.80;99.90
1880;DHT22;49285;49.002;8.390;2023-03-26T03:55:02;11.80;99.90
1880;DHT22;49285;49.002;8.390;2023-03-26T03:57:28;11.80;99.90
1880;DHT22;49285;49.002;8.390;2023-03-26T03:59:56;11.80;99.90
1880;DHT22;49285;49.002;8.390;2023-03-26T04:02:23;11.80;99.90
1880;DHT22;49285;49.002;8.390;2023-03-26T04:04:55;11.90;99.90
1880;DHT22;49285;49.002;8.390;2023-03-26T04:07:25;11.90;99.90
1880;DHT22;49285;49.002;8.390;2023-03-26T04:09:51;11.90;99.90
1880;DHT22;49285;49.002;8.390;2023-03-26T04:12:17;11.90;99.90
1880;DHT22;49285;49.002;8.390;2023-03-26T04:14:42;11.90;99.90
1880;DHT22;49285;49.002;8.390;2023-03-26T04:17:08;11.90;99.90
1880;DHT22;49285;49.002;8.390;2023-03-26T04:19:34;11.90;99.90
1880;DHT22;49285;49.002;8.390;2023-03-26T04:21:59;11.90;99.90
1880;DHT22;49285;49.002;8.390;2023-03-26T04:24:30;11.90;99.90
1880;DHT22;49285;49.002;8.390;2023-03-26T04:27:03;11.90;99.90
1880;DHT22;49285;49.002;8.390;2023-03-26T04:29:35;11.90;99.90
1880;DHT22;49285;49.002;8.390;2023-03-26T04:32:02;11.90;99.90
1880;DHT22;49285;49.002;8.390;2023-03-26T04:34:31;11.90;99.90
1880;DHT22;49285;49.002;8.390;2023-03-26T04:37:02;11.90;99.90
1880;DHT22;49285;49.002;8.390;2023-03-26T04:39:28;11.80;99.90
1880;DHT22;49285;49.002;8.390;2023-03-26T04:41:54;11.90;99.90
1880;DHT22;49285;49.002;8.390;2023-03-26T04:44:20;11.90;99.90
1880;DHT22;49285;49.002;8.390;2023-03-26T04:46:47;11.90;99.90
1880;DHT22;49285;49.002;8.390;2023-03-26T04:49:13;11.90;99.90
1880;DHT22;49285;49.002;8.390;2023-03-26T04:51:39;11.90;99.90
1880;DHT22;49285;49.002;8.390;2023-03-26T04:54:12;11.90;99.90
1880;DHT22;49285;49.002;8.390;2023-03-26T04:56:39;11.90;99.90
1880;DHT22;49285;49.002;8.390;2023-03-26T04:59:11;11.90;99.90
1880;DHT22;49285;49.002;8.390;2023-03-26T05:01:38;11.90;99.90
1880;DHT22;49285;49.002;8.390;2023-03-26T05:04:04;11.90;99.90
1880;DHT22;49285;49.002;8.390;2023-03-26T05:06:30;11.90;99.90
1880;DHT22;49285;49.002;8.390;2023-03-26T05:09:01;11.90;99.90
1880;DHT22;49285;49.002;8.390;2023-03-26T05:11:27;11.90;99.90
1880;DHT22;49285;49.002;8.390;2023-03-26T05:13:53;11.90;99.90
1880;DHT22;49285;49.002;8.390;2023-03-26T05:16:18;12.00;99.90
1880;DHT22;49285;49.002;8.390;2023-03-26T05:18:44;12.00;99.90
1880;DHT22;49285;49.002;8.390;2023-03-26T05:21:11;12.00;99.90
1880;DHT22;49285;49.002;8.390;2023-03-26T05:23:36;12.00;99.90
1880;DHT22;49285;49.002;8.390;2023-03-26T05:26:02;12.00;99.90
1880;DHT22;49285;49.002;8.390;2023-03-26T05:28:28;12.00;99.90
1880;DHT22;49285;49.002;8.390;2023-03-26T05:30:53;12.00;99.90
1880;DHT22;49285;49.002;8.390;2023-03-26T05:33:20;12.00;99.90
1880;DHT22;49285;49.002;8.390;2023-03-26T05:35:46;12.00;99.90
1880;DHT22;49285;49.002;8.390;2023-03-26T05:38:13;12.00;99.90
1880;DHT22;49285;49.002;8.390;2023-03-26T05:40:39;12.00;99.90
1880;DHT22;49285;49.002;8.390;2023-03-26T05:43:05;12.10;99.90
1880;DHT22;49285;49.002;8.390;2023-03-26T05:45:31;12.10;99.90
1880;DHT22;49285;49.002;8.390;2023-03-26T05:47:56;12.10;99.90
1880;DHT22;49285;49.002;8.390;2023-03-26T05:50:23;12.10;99.90
1880;DHT22;49285;49.002;8.390;2023-03-26T05:52:48;12.10;99.90
1880;DHT22;49285;49.002;8.390;2023-03-26T05:55:14;12.20;99.90
1880;DHT22;49285;49.002;8.390;2023-03-26T05:57:40;12.10;99.90
1880;DHT22;49285;49.002;8.390;2023-03-26T06:00:07;12.10;99.90
1880;DHT22;49285;49.002;8.390;2023-03-26T06:02:36;12.20;99.90
1880;DHT22;49285;49.002;8.390;2023-03-26T06:05:02;12.20;99.90
1880;DHT22;49285;49.002;8.390;2023-03-26T06:07:29;12.20;99.90
1880;DHT22;49285;49.002;8.390;2023-03-26T06:09:55;12.20;99.90
1880;DHT22;49285;49.002;8.390;2023-03-26T06:12:21;12.20;99.90
1880;DHT22;49285;49.002;8.390;2023-03-26T06:14:46;12.20;99.90
1880;DHT22;49285;49.002;8.390;2023-03-26T06:17:12;12.20;99.90
1880;DHT22;49285;49.002;8.390;2023-03-26T06:19:38;12.30;99.90
1880;DHT22;49285;49.002;8.390;2023-03-26T06:22:04;12.30;99.90
1880;DHT22;49285;49.002;8.390;2023-03-26T06:24:30;12.30;99.90
1880;DHT22;49285;49.002;8.390;2023-03-26T06:26:55;12.30;99.90
1880;DHT22;49285;49.002;8.390;2023-03-26T06:29:21;12.30;99.90
1880;DHT22;49285;49.002;8.390;2023-03-26T06:31:47;12.40;99.90
1880;DHT22;49285;49.002;8.390;2023-03-26T06:34:12;12.40;99.90
1880;DHT22;49285;49.002;8.390;2023-03-26T06:36:38;12.30;99.90
1880;DHT22;49285;49.002;8.390;2023-03-26T06:39:04;12.30;99.90
1880;DHT22;49285;49.002;8.390;2023-03-26T06:41:32;12.30;99.90
1880;DHT22;49285;49.002;8.390;2023-03-26T06:43:58;12.30;99.90
1880;DHT22;49285;49.002;8.390;2023-03-26T06:46:24;12.30;99.90
1880;DHT22;49285;49.002;8.390;2023-03-26T06:48:50;12.40;99.90
1880;DHT22;49285;49.002;8.390;2023-03-26T06:51:16;12.40;99.90
1880;DHT22;49285;49.002;8.390;2023-03-26T06:53:42;12.30;99.90
1880;DHT22;49285;49.002;8.390;2023-03-26T06:56:08;12.30;99.90
1880;DHT22;49285;49.002;8.390;2023-03-26T06:58:33;12.30;99.90
1880;DHT22;49285;49.002;8.390;2023-03-26T07:00:59;12.30;99.90
1880;DHT22;49285;49.002;8.390;2023-03-26T07:03:25;12.20;99.90
1880;DHT22;49285;49.002;8.390;2023-03-26T07:05:50;12.20;99.90
1880;DHT22;49285;49.002;8.390;2023-03-26T07:08:16;12.20;99.90
1880;DHT22;49285;49.002;8.390;2023-03-26T07:10:42;12.20;99.90
1880;DHT22;49285;49.002;8.390;2023-03-26T07:13:07;12.20;99.90
1880;DHT22;49285;49.002;8.390;2023-03-26T07:15:33;12.10;99.90
1880;DHT22;49285;49.002;8.390;2023-03-26T07:17:59;12.10;99.90
1880;DHT22;49285;49.002;8.390;2023-03-26T07:20:24;12.10;99.90
1880;DHT22;49285;49.002;8.390;2023-03-26T07:22:50;12.10;99.90
1880;DHT22;49285;49.002;8.390;2023-03-26T07:25:17;12.00;99.90
1880;DHT22;49285;49.002;8.390;2023-03-26T07:36:35;11.90;99.90
1880;DHT22;49285;49.002;8.390;2023-03-26T07:39:13;11.80;99.90
1880;DHT22;49285;49.002;8.390;2023-03-26T07:41:57;11.80;99.90
1880;DHT22;49285;49.002;8.390;2023-03-26T07:47:01;12.00;99.90
1880;DHT22;49285;49.002;8.390;2023-03-26T07:49:33;12.00;99.90
1880;DHT22;49285;49.002;8.390;2023-03-26T07:51:59;12.10;99.90
1880;DHT22;49285;49.002;8.390;2023-03-26T07:54:25;12.10;99.90
1880;DHT22;49285;49.002;8.390;2023-03-26T07:56:55;12.10;99.90
1880;DHT22;49285;49.002;8.390;2023-03-26T08:07:25;12.20;99.90
1880;DHT22;49285;49.002;8.390;2023-03-26T08:10:34;12.20;99.90
1880;DHT22;49285;49.002;8.390;2023-03-26T08:13:16;12.20;99.90
1880;DHT22;49285;49.002;8.390;2023-03-26T08:16:08;12.20;99.90
1880;DHT22;49285;49.002;8.390;2023-03-26T08:18:41;12.10;99.90
1880;DHT22;49285;49.002;8.390;2023-03-26T08:21:19;12.10;99.90
1880;DHT22;49285;49.002;8.390;2023-03-26T08:26:42;12.10;99.90
1880;DHT22;49285;49.002;8.390;2023-03-26T08:31:48;12.10;99.90
1880;DHT22;49285;49.002;8.390;2023-03-26T08:34:14;12.10;99.90
1880;DHT22;49285;49.002;8.390;2023-03-26T08:36:40;12.10;99.90
1880;DHT22;49285;49.002;8.390;2023-03-26T08:39:06;12.00;99.90
1880;DHT22;49285;49.002;8.390;2023-03-26T08:41:57;12.10;99.90
1880;DHT22;49285;49.002;8.390;2023-03-26T08:47:25;12.10;99.90
1880;DHT22;49285;49.002;8.390;2023-03-26T08:53:19;12.00;99.90
1880;DHT22;49285;49.002;8.390;2023-03-26T09:21:31;12.70;99.90
1880;DHT22;49285;49.002;8.390;2023-03-26T09:24:49;12.70;99.90
1880;DHT22;49285;49.002;8.390;2023-03-26T09:36:47;13.40;99.90
1880;DHT22;49285;49.002;8.390;2023-03-26T09:42:42;13.90;99.90
1880;DHT22;49285;49.002;8.390;2023-03-26T09:56:46;13.70;99.90
1880;DHT22;49285;49.002;8.390;2023-03-26T10:02:26;13.50;99.90
1880;DHT22;49285;49.002;8.390;2023-03-26T10:09:13;13.70;99.90
1880;DHT22;49285;49.002;8.390;2023-03-26T10:11:27;13.50;99.90
1880;DHT22;49285;49.002;8.390;2023-03-26T10:14:27;13.30;99.90
1880;DHT22;49285;49.002;8.390;2023-03-26T10:29:02;13.20;99.90
1880;DHT22;49285;49.002;8.390;2023-03-26T10:31:04;13.30;99.90
1880;DHT22;49285;49.002;8.390;2023-03-26T10:33:37;13.40;99.90
1880;DHT22;49285;49.002;8.390;2023-03-26T10:36:27;13.30;99.90
1880;DHT22;49285;49.002;8.390;2023-03-26T10:39:20;13.30;99.90
1880;DHT22;49285;49.002;8.390;2023-03-26T10:42:11;13.30;99.90
1880;DHT22;49285;49.002;8.390;2023-03-26T10:50:48;13.50;99.90
1880;DHT22;49285;49.002;8.390;2023-03-26T10:53:33;13.50;99.90
1880;DHT22;49285;49.002;8.390;2023-03-26T10:56:44;13.60;99.90
1880;DHT22;49285;49.002;8.390;2023-03-26T10:59:06;13.60;99.90
1880;DHT22;49285;49.002;8.390;2023-03-26T11:01:43;13.60;99.90
1880;DHT22;49285;49.002;8.390;2023-03-26T11:04:30;13.60;99.90
1880;DHT22;49285;49.002;8.390;2023-03-26T11:07:21;13.60;99.90
1880;DHT22;49285;49.002;8.390;2023-03-26T11:10:05;13.60;99.90
1880;DHT22;49285;49.002;8.390;2023-03-26T11:12:42;13.70;99.90
1880;DHT22;49285;49.002;8.390;2023-03-26T11:15:23;13.90;99.90
1880;DHT22;49285;49.002;8.390;2023-03-26T11:31:42;14.20;99.90
1880;DHT22;49285;49.002;8.390;2023-03-26T11:34:17;14.20;99.90
1880;DHT22;49285;49.002;8.390;2023-03-26T11:36:50;14.20;99.90
1880;DHT22;49285;49.002;8.390;2023-03-26T11:39:25;14.30;99.90
1880;DHT22;49285;49.002;8.390;2023-03-26T11:42:16;14.40;99.90
1880;DHT22;49285;49.002;8.390;2023-03-26T11:44:52;14.60;99.90
1880;DHT22;49285;49.002;8.390;2023-03-26T11:47:22;14.70;99.90
1880;DHT22;49285;49.002;8.390;2023-03-26T11:49:50;14.80;99.90
1880;DHT22;49285;49.002;8.390;2023-03-26T11:52:19;14.80;99.90
1880;DHT22;49285;49.002;8.390;2023-03-26T11:54:45;15.00;99.90
1880;DHT22;49285;49.002;8.390;2023-03-26T11:57:21;15.30;99.90
1880;DHT22;49285;49.002;8.390;2023-03-26T12:00:05;15.30;99.90
1880;DHT22;49285;49.002;8.390;2023-03-26T12:02:41;15.40;99.90
1880;DHT22;49285;49.002;8.390;2023-03-26T12:05:17;15.60;99.90
1880;DHT22;49285;49.002;8.390;2023-03-26T12:07:53;15.70;99.90
1880;DHT22;49285;49.002;8.390;2023-03-26T12:10:28;17.00;99.90
1880;DHT22;49285;49.002;8.390;2023-03-26T12:12:58;17.00;99.20
1880;DHT22;49285;49.002;8.390;2023-03-26T12:15:24;17.30;99.30
1880;DHT22;49285;49.002;8.390;2023-03-26T12:17:53;18.10;96.60
1880;DHT22;49285;49.002;8.390;2023-03-26T12:22:54;19.40;92.70
1880;DHT22;49285;49.002;8.390;2023-03-26T12:25:25;18.80;89.00
1880;DHT22;49285;49.002;8.390;2023-03-26T12:30:50;20.20;84.50
1880;DHT22;49285;49.002;8.390;2023-03-26T12:33:32;20.20;81.30
1880;DHT22;49285;49.002;8.390;2023-03-26T12:36:14;19.60;79.30
1880;DHT22;49285;49.002;8.390;2023-03-26T12:38:41;20.30;78.00
1880;DHT22;49285;49.002;8.390;2023-03-26T12:41:14;20.00;74.70
1880;DHT22;49285;49.002;8.390;2023-03-26T12:43:43;19.80;74.00
1880;DHT22;49285;49.002;8.390;2023-03-26T12:46:29;19.10;75.90
1880;DHT22;49285;49.002;8.390;2023-03-26T12:48:58;18.80;77.30
1880;DHT22;49285;49.002;8.390;2023-03-26T12:51:49;18.70;78.10
1880;DHT22;49285;49.002;8.390;2023-03-26T12:57:19;19.10;76.50
1880;DHT22;49285;49.002;8.390;2023-03-26T13:03:33;20.20;73.80
1880;DHT22;49285;49.002;8.390;2023-03-26T13:09:10;20.20;72.90
1880;DHT22;49285;49.002;8.390;2023-03-26T13:11:52;20.60;71.70
1880;DHT22;49285;49.002;8.390;2023-03-26T13:14:48;20.30;70.10
1880;DHT22;49285;49.002;8.390;2023-03-26T13:17:25;20.60;71.60
1880;DHT22;49285;49.002;8.390;2023-03-26T13:20:05;20.70;69.50
1880;DHT22;49285;49.002;8.390;2023-03-26T13:28:03;20.30;66.10
1880;DHT22;49285;49.002;8.390;2023-03-26T13:30:56;19.30;65.30
1880;DHT22;49285;49.002;8.390;2023-03-26T13:36:04;17.90;65.80
1880;DHT22;49285;49.002;8.390;2023-03-26T13:39:05;17.30;67.10
1880;DHT22;49285;49.002;8.390;2023-03-26T13:42:02;17.10;68.90
1880;DHT22;49285;49.002;8.390;2023-03-26T13:47:27;16.40;71.30
1880;DHT22;49285;49.002;8.390;2023-03-26T13:50:00;16.10;73.70
1880;DHT22;49285;49.002;8.390;2023-03-26T13:52:42;15.90;75.00
1880;DHT22;49285;49.002;8.390;2023-03-26T13:55:34;15.70;76.40
1880;DHT22;49285;49.002;8.390;2023-03-26T13:58:09;15.00;81.70
1880;DHT22;49285;49.002;8.390;2023-03-26T14:00:44;14.80;86.20
1880;DHT22;49285;49.002;8.390;2023-03-26T14:03:23;14.00;91.20
1880;DHT22;49285;49.002;8.390;2023-03-26T14:05:53;13.30;96.00
1880;DHT22;49285;49.002;8.390;2023-03-26T14:08:32;13.00;99.90
1880;DHT22;49285;49.002;8.390;2023-03-26T14:14:17;12.30;99.90
1880;DHT22;49285;49.002;8.390;2023-03-26T14:16:52;12.00;99.90
1880;DHT22;49285;49.002;8.390;2023-03-26T14:24:48;11.50;99.90
1880;DHT22;49285;49.002;8.390;2023-03-26T14:35:57;10.80;99.90
1880;DHT22;49285;49.002;8.390;2023-03-26T14:41:26;10.70;99.90
1880;DHT22;49285;49.002;8.390;2023-03-26T14:47:11;10.80;99.90
1880;DHT22;49285;49.002;8.390;2023-03-26T14:50:04;10.90;99.90
1880;DHT22;49285;49.002;8.390;2023-03-26T14:52:48;11.10;99.90
1880;DHT22;49285;49.002;8.390;2023-03-26T15:09:36;11.40;99.90
1880;DHT22;49285;49.002;8.390;2023-03-26T15:18:03;11.60;99.90
1880;DHT22;49285;49.002;8.390;2023-03-26T15:21:09;11.50;99.90
1880;DHT22;49285;49.002;8.390;2023-03-26T15:32:00;11.20;99.90
1880;DHT22;49285;49.002;8.390;2023-03-26T15:45:28;10.90;99.90
1880;DHT22;49285;49.002;8.390;2023-03-26T15:50:58;10.90;99.90
1880;DHT22;49285;49.002;8.390;2023-03-26T16:04:51;11.00;99.90
1880;DHT22;49285;49.002;8.390;2023-03-26T16:10:36;10.90;99.90
1880;DHT22;49285;49.002;8.390;2023-03-26T16:15:56;10.80;99.90
1880;DHT22;49285;49.002;8.390;2023-03-26T16:21:36;10.70;99.90
1880;DHT22;49285;49.002;8.390;2023-03-26T16:26:58;10.70;99.90
1880;DHT22;49285;49.002;8.390;2023-03-26T16:29:26;10.70;99.90
1880;DHT22;49285;49.002;8.390;2023-03-26T16:32:26;10.70;99.90
1880;DHT22;49285;49.002;8.390;2023-03-26T16:37:41;10.60;99.90
1880;DHT22;49285;49.002;8.390;2023-03-26T16:56:14;10.50;99.90
1880;DHT22;49285;49.002;8.390;2023-03-26T16:58:52;10.70;99.90
1880;DHT22;49285;49.002;8.390;2023-03-26T17:04:19;10.70;99.90
1880;DHT22;49285;49.002;8.390;2023-03-26T17:09:29;10.70;99.90
1880;DHT22;49285;49.002;8.390;2023-03-26T17:12:19;10.60;99.90
1880;DHT22;49285;49.002;8.390;2023-03-26T17:26:20;10.50;99.90
1880;DHT22;49285;49.002;8.390;2023-03-26T17:31:47;10.60;99.90
1880;DHT22;49285;49.002;8.390;2023-03-26T17:44:55;10.50;99.90
1880;DHT22;49285;49.002;8.390;2023-03-26T17:50:21;10.40;99.90
1880;DHT22;49285;49.002;8.390;2023-03-26T17:53:02;10.30;99.90
1880;DHT22;49285;49.002;8.390;2023-03-26T17:55:32;10.30;99.90
1880;DHT22;49285;49.002;8.390;2023-03-26T17:58:01;10.30;99.90
1880;DHT22;49285;49.002;8.390;2023-03-26T18:00:34;10.40;99.90
1880;DHT22;49285;49.002;8.390;2023-03-26T18:03:05;10.30;99.90
1880;DHT22;49285;49.002;8.390;2023-03-26T18:05:37;10.30;99.90
1880;DHT22;49285;49.002;8.390;2023-03-26T18:11:04;10.30;99.90
1880;DHT22;49285;49.002;8.390;2023-03-26T18:13:56;10.10;99.90
1880;DHT22;49285;49.002;8.390;2023-03-26T18:16:38;10.10;99.90
1880;DHT22;49285;49.002;8.390;2023-03-26T18:19:24;10.10;99.90
1880;DHT22;49285;49.002;8.390;2023-03-26T18:21:52;10.10;99.90
1880;DHT22;49285;49.002;8.390;2023-03-26T18:24:39;10.20;99.90
1880;DHT22;49285;49.002;8.390;2023-03-26T18:27:14;10.20;99.90
1880;DHT22;49285;49.002;8.390;2023-03-26T18:32:23;10.10;99.90
1880;DHT22;49285;49.002;8.390;2023-03-26T18:35:01;10.10;99.90
1880;DHT22;49285;49.002;8.390;2023-03-26T18:37:37;10.10;99.90
1880;DHT22;49285;49.002;8.390;2023-03-26T18:42:51;10.00;99.90
1880;DHT22;49285;49.002;8.390;2023-03-26T18:45:27;9.90;99.90
1880;DHT22;49285;49.002;8.390;2023-03-26T18:47:56;10.00;99.90
1880;DHT22;49285;49.002;8.390;2023-03-26T18:50:26;9.90;99.90
1880;DHT22;49285;49.002;8.390;2023-03-26T18:52:54;9.90;99.90
1880;DHT22;49285;49.002;8.390;2023-03-26T18:55:20;9.90;99.90
1880;DHT22;49285;49.002;8.390;2023-03-26T18:57:49;9.90;99.90
1880;DHT22;49285;49.002;8.390;2023-03-26T19:00:26;9.80;99.90
1880;DHT22;49285;49.002;8.390;2023-03-26T19:03:03;9.70;99.90
1880;DHT22;49285;49.002;8.390;2023-03-26T19:05:29;9.70;99.90
1880;DHT22;49285;49.002;8.390;2023-03-26T19:07:57;9.70;99.90
1880;DHT22;49285;49.002;8.390;2023-03-26T19:10:24;9.70;99.90
1880;DHT22;49285;49.002;8.390;2023-03-26T19:12:57;9.60;99.90
1880;DHT22;49285;49.002;8.390;2023-03-26T19:15:26;9.50;99.90
1880;DHT22;49285;49.002;8.390;2023-03-26T19:18:01;9.60;99.90
1880;DHT22;49285;49.002;8.390;2023-03-26T19:20:58;9.60;99.90
1880;DHT22;49285;49.002;8.390;2023-03-26T19:23:26;9.60;99.90
1880;DHT22;49285;49.002;8.390;2023-03-26T19:25:57;9.60;99.90
1880;DHT22;49285;49.002;8.390;2023-03-26T19:28:30;9.50;99.90
1880;DHT22;49285;49.002;8.390;2023-03-26T19:31:08;9.60;99.90
1880;DHT22;49285;49.002;8.390;2023-03-26T19:33:36;9.70;99.90
1880;DHT22;49285;49.002;8.390;2023-03-26T19:38:49;9.50;99.90
1880;DHT22;49285;49.002;8.390;2023-03-26T19:41:24;9.40;99.90
1880;DHT22;49285;49.002;8.390;2023-03-26T19:43:52;9.40;99.90
1880;DHT22;49285;49.002;8.390;2023-03-26T19:46:22;9.40;99.90
1880;DHT22;49285;49.002;8.390;2023-03-26T19:48:51;9.30;99.90
1880;DHT22;49285;49.002;8.390;2023-03-26T19:51:23;9.30;99.90
1880;DHT22;49285;49.002;8.390;2023-03-26T19:53:54;9.30;99.90
1880;DHT22;49285;49.002;8.390;2023-03-26T19:56:20;9.30;99.90
1880;DHT22;49285;49.002;8.390;2023-03-26T19:58:47;9.30;99.90
1880;DHT22;49285;49.002;8.390;2023-03-26T20:01:19;9.20;99.90
1880;DHT22;49285;49.002;8.390;2023-03-26T20:03:48;9.20;99.90
1880;DHT22;49285;49.002;8.390;2023-03-26T20:06:16;9.30;99.90
1880;DHT22;49285;49.002;8.390;2023-03-26T20:08:42;9.30;99.90
1880;DHT22;49285;49.002;8.390;2023-03-26T20:11:22;9.30;99.90
1880;DHT22;49285;49.002;8.390;2023-03-26T20:13:49;9.30;99.90
1880;DHT22;49285;49.002;8.390;2023-03-26T20:16:24;9.40;99.90
1880;DHT22;49285;49.002;8.390;2023-03-26T20:18:50;9.40;99.90
1880;DHT22;49285;49.002;8.390;2023-03-26T20:21:16;9.30;99.90
1880;DHT22;49285;49.002;8.390;2023-03-26T20:23:41;9.40;99.90
1880;DHT22;49285;49.002;8.390;2023-03-26T20:26:13;9.30;99.90
1880;DHT22;49285;49.002;8.390;2023-03-26T20:28:39;9.50;99.90
1880;DHT22;49285;49.002;8.390;2023-03-26T20:31:10;9.50;99.90
1880;DHT22;49285;49.002;8.390;2023-03-26T20:33:38;9.50;99.90
1880;DHT22;49285;49.002;8.390;2023-03-26T20:36:04;9.60;99.90
1880;DHT22;49285;49.002;8.390;2023-03-26T20:38:30;9.50;99.90
1880;DHT22;49285;49.002;8.390;2023-03-26T20:40:56;9.50;99.90
1880;DHT22;49285;49.002;8.390;2023-03-26T20:43:22;9.50;99.90
1880;DHT22;49285;49.002;8.390;2023-03-26T20:45:49;9.40;99.90
1880;DHT22;49285;49.002;8.390;2023-03-26T20:48:16;9.50;99.90
1880;DHT22;49285;49.002;8.390;2023-03-26T20:50:42;9.50;99.90
1880;DHT22;49285;49.002;8.390;2023-03-26T20:53:12;9.50;99.90
1880;DHT22;49285;49.002;8.390;2023-03-26T20:55:41;9.40;99.90
1880;DHT22;49285;49.002;8.390;2023-03-26T20:58:14;9.50;99.90
1880;DHT22;49285;49.002;8.390;2023-03-26T21:00:45;9.50;99.90
1880;DHT22;49285;49.002;8.390;2023-03-26T21:03:13;9.60;99.90
1880;DHT22;49285;49.002;8.390;2023-03-26T21:05:39;9.50;99.90
1880;DHT22;49285;49.002;8.390;2023-03-26T21:08:05;9.30;99.90
1880;DHT22;49285;49.002;8.390;2023-03-26T21:10:32;9.40;99.90
1880;DHT22;49285;49.002;8.390;2023-03-26T21:13:07;9.30;99.90
1880;DHT22;49285;49.002;8.390;2023-03-26T21:15:35;9.40;99.90
1880;DHT22;49285;49.002;8.390;2023-03-26T21:18:01;9.50;99.90
1880;DHT22;49285;49.002;8.390;2023-03-26T21:20:27;9.40;99.90
1880;DHT22;49285;49.002;8.390;2023-03-26T21:23:18;9.30;99.90
1880;DHT22;49285;49.002;8.390;2023-03-26T21:26:29;9.20;99.90
1880;DHT22;49285;49.002;8.390;2023-03-26T21:28:57;9.10;99.90
1880;DHT22;49285;49.002;8.390;2023-03-26T21:31:23;9.20;99.90
1880;DHT22;49285;49.002;8.390;2023-03-26T21:33:50;9.10;99.90